sensor_id;sensor_type;location;lat;lon;timestamp;P1;durP1;ratioP1;P2;durP2;ratioP2
12042;SDS011;6082;49.306;12.862;2023-04-24T00:00:39;2.27;;;1.73;;
12042;SDS011;6082;49.306;12.862;2023-04-24T00:03:05;2.50;;;1.70;;
12042;SDS011;6082;49.306;12.862;2023-04-24T00:05:32;2.93;;;1.63;;
12042;SDS011;6082;49.306;12.862;2023-04-24T00:07:58;1.77;;;1.40;;
12042;SDS011;6082;49.306;12.862;2023-04-24T00:10:25;2.57;;;1.70;;
12042;SDS011;6082;49.306;12.862;2023-04-24T00:12:51;1.97;;;1.47;;
12042;SDS011;6082;49.306;12.862;2023-04-24T00:15:17;2.33;;;1.60;;
12042;SDS011;6082;49.306;12.862;2023-04-24T00:17:43;2.60;;;1.57;;
12042;SDS011;6082;49.306;12.862;2023-04-24T00:20:09;1.70;;;1.40;;
12042;SDS011;6082;49.306;12.862;2023-04-24T00:22:36;1.80;;;1.40;;
12042;SDS011;6082;49.306;12.862;2023-04-24T00:25:03;1.43;;;1.20;;
12042;SDS011;6082;49.306;12.862;2023-04-24T00:27:29;1.93;;;1.40;;
12042;SDS011;6082;49.306;12.862;2023-04-24T00:29:55;1.60;;;1.40;;
12042;SDS011;6082;49.306;12.862;2023-04-24T00:32:21;1.83;;;1.37;;
12042;SDS011;6082;49.306;12.862;2023-04-24T00:34:47;1.30;;;1.10;;
12042;SDS011;6082;49.306;12.862;2023-04-24T00:37:13;1.53;;;1.23;;
12042;SDS011;6082;49.306;12.862;2023-04-24T00:39:39;1.80;;;1.50;;
12042;SDS011;6082;49.306;12.862;2023-04-24T00:42:05;1.77;;;1.37;;
12042;SDS011;6082;49.306;12.862;2023-04-24T00:44:32;1.50;;;1.40;;
12042;SDS011;6082;49.306;12.862;2023-04-24T00:46:59;1.40;;;1.30;;
12042;SDS011;6082;49.306;12.862;2023-04-24T00:49:26;2.13;;;1.63;;
12042;SDS011;6082;49.306;12.862;2023-04-24T00:51:52;3.53;;;1.63;;
12042;SDS011;6082;49.306;12.862;2023-04-24T00:54:19;1.63;;;1.53;;
12042;SDS011;6082;49.306;12.862;2023-04-24T00:56:45;2.53;;;1.70;;
12042;SDS011;6082;49.306;12.862;2023-04-24T00:59:12;1.77;;;1.50;;
12042;SDS011;6082;49.306;12.862;2023-04-24T01:01:38;1.73;;;1.43;;
12042;SDS011;6082;49.306;12.862;2023-04-24T01:04:25;1.90;;;1.40;;
12042;SDS011;6082;49.306;12.862;2023-04-24T01:06:51;1.60;;;1.40;;
12042;SDS011;6082;49.306;12.862;2023-04-24T01:09:17;2.27;;;1.40;;
12042;SDS011;6082;49.306;12.862;2023-04-24T01:11:43;1.57;;;1.17;;
12042;SDS011;6082;49.306;12.862;2023-04-24T01:14:10;1.73;;;1.27;;
12042;SDS011;6082;49.306;12.862;2023-04-24T01:16:36;1.60;;;1.50;;
12042;SDS011;6082;49.306;12.862;2023-04-24T01:19:03;1.50;;;1.13;;
12042;SDS011;6082;49.306;12.862;2023-04-24T01:21:29;1.50;;;1.23;;
12042;SDS011;6082;49.306;12.862;2023-04-24T01:23:56;1.47;;;1.30;;
12042;SDS011;6082;49.306;12.862;2023-04-24T01:26:22;2.33;;;1.43;;
12042;SDS011;6082;49.306;12.862;2023-04-24T01:28:50;2.40;;;1.37;;
12042;SDS011;6082;49.306;12.862;2023-04-24T01:31:17;1.70;;;1.30;;
12042;SDS011;6082;49.306;12.862;2023-04-24T01:33:43;4.27;;;1.30;;
12042;SDS011;6082;49.306;12.862;2023-04-24T01:36:10;1.20;;;1.10;;
12042;SDS011;6082;49.306;12.862;2023-04-24T01:38:40;2.00;;;1.40;;
12042;SDS011;6082;49.306;12.862;2023-04-24T01:41:06;1.83;;;1.40;;
12042;SDS011;6082;49.306;12.862;2023-04-24T01:43:32;1.73;;;1.50;;
12042;SDS011;6082;49.306;12.862;2023-04-24T01:45:58;2.10;;;1.43;;
12042;SDS011;6082;49.306;12.862;2023-04-24T01:48:24;2.03;;;1.50;;
12042;SDS011;6082;49.306;12.862;2023-04-24T01:50:50;1.60;;;1.40;;
12042;SDS011;6082;49.306;12.862;2023-04-24T01:53:16;1.43;;;1.33;;
12042;SDS011;6082;49.306;12.862;2023-04-24T01:55:42;2.03;;;1.50;;
12042;SDS011;6082;49.306;12.862;2023-04-24T01:58:08;1.83;;;1.30;;
12042;SDS011;6082;49.306;12.862;2023-04-24T02:00:35;1.30;;;1.17;;
12042;SDS011;6082;49.306;12.862;2023-04-24T02:03:01;2.50;;;1.47;;
12042;SDS011;6082;49.306;12.862;2023-04-24T02:05:27;2.03;;;1.20;;
12042;SDS011;6082;49.306;12.862;2023-04-24T02:07:53;1.30;;;1.20;;
12042;SDS011;6082;49.306;12.862;2023-04-24T02:10:19;2.30;;;1.23;;
12042;SDS011;6082;49.306;12.862;2023-04-24T02:12:55;2.43;;;1.30;;
12042;SDS011;6082;49.306;12.862;2023-04-24T02:15:21;1.20;;;1.10;;
12042;SDS011;6082;49.306;12.862;2023-04-24T02:17:47;1.40;;;1.30;;
12042;SDS011;6082;49.306;12.862;2023-04-24T02:20:13;1.70;;;1.20;;
12042;SDS011;6082;49.306;12.862;2023-04-24T02:22:39;2.13;;;1.57;;
12042;SDS011;6082;49.306;12.862;2023-04-24T02:25:08;1.90;;;1.40;;
12042;SDS011;6082;49.306;12.862;2023-04-24T02:27:37;1.60;;;1.50;;
12042;SDS011;6082;49.306;12.862;2023-04-24T02:30:04;2.33;;;1.50;;
12042;SDS011;6082;49.306;12.862;2023-04-24T02:32:30;2.30;;;1.80;;
12042;SDS011;6082;49.306;12.862;2023-04-24T02:34:56;1.60;;;1.27;;
12042;SDS011;6082;49.306;12.862;2023-04-24T02:37:22;1.83;;;1.30;;
12042;SDS011;6082;49.306;12.862;2023-04-24T02:39:48;2.00;;;1.80;;
12042;SDS011;6082;49.306;12.862;2023-04-24T02:42:14;1.53;;;1.43;;
12042;SDS011;6082;49.306;12.862;2023-04-24T02:44:40;3.27;;;1.70;;
12042;SDS011;6082;49.306;12.862;2023-04-24T02:47:07;2.30;;;1.60;;
12042;SDS011;6082;49.306;12.862;2023-04-24T02:49:33;2.37;;;1.57;;
12042;SDS011;6082;49.306;12.862;2023-04-24T02:51:59;2.00;;;1.77;;
12042;SDS011;6082;49.306;12.862;2023-04-24T02:54:25;2.40;;;1.80;;
12042;SDS011;6082;49.306;12.862;2023-04-24T02:56:51;1.83;;;1.73;;
12042;SDS011;6082;49.306;12.862;2023-04-24T02:59:18;2.37;;;1.80;;
12042;SDS011;6082;49.306;12.862;2023-04-24T03:01:44;2.37;;;2.17;;
12042;SDS011;6082;49.306;12.862;2023-04-24T03:04:10;2.67;;;2.00;;
12042;SDS011;6082;49.306;12.862;2023-04-24T03:06:36;10.47;;;2.10;;
12042;SDS011;6082;49.306;12.862;2023-04-24T03:09:02;2.10;;;1.80;;
12042;SDS011;6082;49.306;12.862;2023-04-24T03:11:28;2.20;;;2.00;;
12042;SDS011;6082;49.306;12.862;2023-04-24T03:13:54;2.47;;;1.90;;
12042;SDS011;6082;49.306;12.862;2023-04-24T03:16:20;3.03;;;2.30;;
12042;SDS011;6082;49.306;12.862;2023-04-24T03:18:46;4.13;;;2.60;;
12042;SDS011;6082;49.306;12.862;2023-04-24T03:21:12;3.43;;;2.30;;
12042;SDS011;6082;49.306;12.862;2023-04-24T03:23:39;2.80;;;2.20;;
12042;SDS011;6082;49.306;12.862;2023-04-24T03:26:05;4.03;;;2.20;;
12042;SDS011;6082;49.306;12.862;2023-04-24T03:28:34;3.23;;;2.57;;
12042;SDS011;6082;49.306;12.862;2023-04-24T03:31:00;2.90;;;2.37;;
12042;SDS011;6082;49.306;12.862;2023-04-24T03:33:26;2.63;;;2.00;;
12042;SDS011;6082;49.306;12.862;2023-04-24T03:35:52;3.20;;;2.20;;
12042;SDS011;6082;49.306;12.862;2023-04-24T03:38:18;2.90;;;2.40;;
12042;SDS011;6082;49.306;12.862;2023-04-24T03:40:44;3.37;;;2.20;;
12042;SDS011;6082;49.306;12.862;2023-04-24T03:43:10;3.13;;;2.20;;
12042;SDS011;6082;49.306;12.862;2023-04-24T03:45:36;4.90;;;2.47;;
12042;SDS011;6082;49.306;12.862;2023-04-24T03:48:02;2.63;;;2.23;;
12042;SDS011;6082;49.306;12.862;2023-04-24T03:50:28;2.67;;;1.97;;
12042;SDS011;6082;49.306;12.862;2023-04-24T03:52:55;3.63;;;2.47;;
12042;SDS011;6082;49.306;12.862;2023-04-24T03:55:21;2.60;;;2.20;;
12042;SDS011;6082;49.306;12.862;2023-04-24T03:57:47;3.23;;;2.57;;
12042;SDS011;6082;49.306;12.862;2023-04-24T04:00:13;3.17;;;2.30;;
12042;SDS011;6082;49.306;12.862;2023-04-24T04:02:39;3.00;;;2.27;;
12042;SDS011;6082;49.306;12.862;2023-04-24T04:05:05;2.73;;;2.17;;
12042;SDS011;6082;49.306;12.862;2023-04-24T04:07:31;4.50;;;2.50;;
12042;SDS011;6082;49.306;12.862;2023-04-24T04:09:57;3.07;;;2.07;;
12042;SDS011;6082;49.306;12.862;2023-04-24T04:12:23;2.60;;;2.27;;
12042;SDS011;6082;49.306;12.862;2023-04-24T04:14:49;3.13;;;2.37;;
12042;SDS011;6082;49.306;12.862;2023-04-24T04:17:15;3.90;;;2.57;;
12042;SDS011;6082;49.306;12.862;2023-04-24T04:19:41;3.23;;;2.10;;
12042;SDS011;6082;49.306;12.862;2023-04-24T04:22:07;2.50;;;2.20;;
12042;SDS011;6082;49.306;12.862;2023-04-24T04:24:34;4.10;;;2.90;;
12042;SDS011;6082;49.306;12.862;2023-04-24T04:27:03;2.90;;;2.50;;
12042;SDS011;6082;49.306;12.862;2023-04-24T04:29:30;3.37;;;2.50;;
12042;SDS011;6082;49.306;12.862;2023-04-24T04:31:56;3.43;;;2.87;;
12042;SDS011;6082;49.306;12.862;2023-04-24T04:34:23;4.00;;;2.70;;
12042;SDS011;6082;49.306;12.862;2023-04-24T04:36:49;3.30;;;2.83;;
12042;SDS011;6082;49.306;12.862;2023-04-24T04:39:15;5.17;;;3.13;;
12042;SDS011;6082;49.306;12.862;2023-04-24T04:41:43;4.83;;;3.30;;
12042;SDS011;6082;49.306;12.862;2023-04-24T04:44:14;4.20;;;3.00;;
12042;SDS011;6082;49.306;12.862;2023-04-24T04:46:40;3.77;;;2.63;;
12042;SDS011;6082;49.306;12.862;2023-04-24T04:49:07;3.63;;;2.87;;
12042;SDS011;6082;49.306;12.862;2023-04-24T04:51:34;3.80;;;2.80;;
12042;SDS011;6082;49.306;12.862;2023-04-24T04:54:00;6.53;;;3.70;;
12042;SDS011;6082;49.306;12.862;2023-04-24T04:56:26;5.20;;;3.60;;
12042;SDS011;6082;49.306;12.862;2023-04-24T04:58:52;3.70;;;3.10;;
12042;SDS011;6082;49.306;12.862;2023-04-24T05:01:18;5.37;;;3.70;;
12042;SDS011;6082;49.306;12.862;2023-04-24T05:03:44;7.33;;;4.40;;
12042;SDS011;6082;49.306;12.862;2023-04-24T05:06:10;5.80;;;3.90;;
12042;SDS011;6082;49.306;12.862;2023-04-24T05:08:37;5.17;;;3.73;;
12042;SDS011;6082;49.306;12.862;2023-04-24T05:11:03;5.73;;;3.90;;
12042;SDS011;6082;49.306;12.862;2023-04-24T05:13:29;6.03;;;4.17;;
12042;SDS011;6082;49.306;12.862;2023-04-24T05:18:27;5.73;;;4.10;;
12042;SDS011;6082;49.306;12.862;2023-04-24T05:20:53;9.13;;;5.63;;
12042;SDS011;6082;49.306;12.862;2023-04-24T05:23:19;8.13;;;5.27;;
12042;SDS011;6082;49.306;12.862;2023-04-24T05:25:45;7.83;;;4.80;;
12042;SDS011;6082;49.306;12.862;2023-04-24T05:28:12;6.83;;;4.60;;
12042;SDS011;6082;49.306;12.862;2023-04-24T05:30:38;5.57;;;4.37;;
12042;SDS011;6082;49.306;12.862;2023-04-24T05:33:04;5.83;;;4.07;;
12042;SDS011;6082;49.306;12.862;2023-04-24T05:35:30;7.23;;;4.80;;
12042;SDS011;6082;49.306;12.862;2023-04-24T05:37:56;7.00;;;4.47;;
12042;SDS011;6082;49.306;12.862;2023-04-24T05:40:22;7.13;;;4.63;;
12042;SDS011;6082;49.306;12.862;2023-04-24T05:42:48;9.13;;;4.77;;
12042;SDS011;6082;49.306;12.862;2023-04-24T05:45:15;6.10;;;4.30;;
12042;SDS011;6082;49.306;12.862;2023-04-24T05:47:43;7.13;;;4.67;;
12042;SDS011;6082;49.306;12.862;2023-04-24T05:50:10;7.50;;;4.73;;
12042;SDS011;6082;49.306;12.862;2023-04-24T05:52:36;7.20;;;4.83;;
12042;SDS011;6082;49.306;12.862;2023-04-24T05:55:02;6.23;;;4.37;;
12042;SDS011;6082;49.306;12.862;2023-04-24T05:57:28;7.73;;;4.80;;
12042;SDS011;6082;49.306;12.862;2023-04-24T05:59:55;6.70;;;5.17;;
12042;SDS011;6082;49.306;12.862;2023-04-24T06:02:24;6.33;;;4.50;;
12042;SDS011;6082;49.306;12.862;2023-04-24T06:04:50;7.00;;;4.57;;
12042;SDS011;6082;49.306;12.862;2023-04-24T06:07:16;7.43;;;4.90;;
12042;SDS011;6082;49.306;12.862;2023-04-24T06:09:42;6.60;;;4.30;;
12042;SDS011;6082;49.306;12.862;2023-04-24T06:12:09;7.30;;;4.73;;
12042;SDS011;6082;49.306;12.862;2023-04-24T06:14:35;7.10;;;4.17;;
12042;SDS011;6082;49.306;12.862;2023-04-24T06:17:01;6.30;;;4.10;;
12042;SDS011;6082;49.306;12.862;2023-04-24T06:19:27;7.03;;;3.90;;
12042;SDS011;6082;49.306;12.862;2023-04-24T06:21:53;6.23;;;3.97;;
12042;SDS011;6082;49.306;12.862;2023-04-24T06:24:20;5.83;;;4.10;;
12042;SDS011;6082;49.306;12.862;2023-04-24T06:26:46;6.10;;;3.80;;
12042;SDS011;6082;49.306;12.862;2023-04-24T06:29:12;6.07;;;4.00;;
12042;SDS011;6082;49.306;12.862;2023-04-24T06:31:38;5.13;;;3.33;;
12042;SDS011;6082;49.306;12.862;2023-04-24T06:34:05;5.53;;;3.73;;
12042;SDS011;6082;49.306;12.862;2023-04-24T06:36:31;6.23;;;4.20;;
12042;SDS011;6082;49.306;12.862;2023-04-24T06:38:59;6.27;;;4.13;;
12042;SDS011;6082;49.306;12.862;2023-04-24T06:41:25;6.30;;;4.33;;
12042;SDS011;6082;49.306;12.862;2023-04-24T06:43:51;6.53;;;4.23;;
12042;SDS011;6082;49.306;12.862;2023-04-24T06:46:17;7.10;;;4.70;;
12042;SDS011;6082;49.306;12.862;2023-04-24T06:48:43;6.27;;;4.40;;
12042;SDS011;6082;49.306;12.862;2023-04-24T06:51:09;5.87;;;3.93;;
12042;SDS011;6082;49.306;12.862;2023-04-24T06:53:35;6.00;;;4.37;;
12042;SDS011;6082;49.306;12.862;2023-04-24T06:56:02;7.40;;;4.10;;
12042;SDS011;6082;49.306;12.862;2023-04-24T06:58:29;6.20;;;4.30;;
12042;SDS011;6082;49.306;12.862;2023-04-24T07:00:56;4.63;;;3.67;;
12042;SDS011;6082;49.306;12.862;2023-04-24T07:03:22;6.40;;;4.77;;
12042;SDS011;6082;49.306;12.862;2023-04-24T07:05:48;5.40;;;4.17;;
12042;SDS011;6082;49.306;12.862;2023-04-24T07:08:14;6.37;;;4.77;;
12042;SDS011;6082;49.306;12.862;2023-04-24T07:10:42;7.57;;;4.87;;
12042;SDS011;6082;49.306;12.862;2023-04-24T07:13:08;6.67;;;4.27;;
12042;SDS011;6082;49.306;12.862;2023-04-24T07:15:34;7.90;;;5.10;;
12042;SDS011;6082;49.306;12.862;2023-04-24T07:18:01;5.37;;;4.30;;
12042;SDS011;6082;49.306;12.862;2023-04-24T07:20:27;6.13;;;4.23;;
12042;SDS011;6082;49.306;12.862;2023-04-24T07:22:53;6.47;;;4.50;;
12042;SDS011;6082;49.306;12.862;2023-04-24T07:25:19;5.97;;;4.67;;
12042;SDS011;6082;49.306;12.862;2023-04-24T07:27:45;6.77;;;4.27;;
12042;SDS011;6082;49.306;12.862;2023-04-24T07:30:11;6.70;;;4.20;;
12042;SDS011;6082;49.306;12.862;2023-04-24T07:32:37;7.27;;;4.00;;
12042;SDS011;6082;49.306;12.862;2023-04-24T07:35:03;5.33;;;3.90;;
12042;SDS011;6082;49.306;12.862;2023-04-24T07:37:29;6.00;;;4.67;;
12042;SDS011;6082;49.306;12.862;2023-04-24T07:39:55;5.50;;;4.10;;
12042;SDS011;6082;49.306;12.862;2023-04-24T07:42:23;4.53;;;3.77;;
12042;SDS011;6082;49.306;12.862;2023-04-24T07:44:49;5.43;;;3.57;;
12042;SDS011;6082;49.306;12.862;2023-04-24T07:47:16;6.17;;;3.73;;
12042;SDS011;6082;49.306;12.862;2023-04-24T07:49:42;4.77;;;3.17;;
12042;SDS011;6082;49.306;12.862;2023-04-24T07:52:08;3.53;;;3.00;;
12042;SDS011;6082;49.306;12.862;2023-04-24T07:54:37;3.07;;;2.70;;
12042;SDS011;6082;49.306;12.862;2023-04-24T07:57:03;4.47;;;2.93;;
12042;SDS011;6082;49.306;12.862;2023-04-24T07:59:31;6.87;;;3.83;;
12042;SDS011;6082;49.306;12.862;2023-04-24T08:01:57;3.13;;;2.70;;
12042;SDS011;6082;49.306;12.862;2023-04-24T08:04:24;4.47;;;2.50;;
12042;SDS011;6082;49.306;12.862;2023-04-24T08:06:50;3.00;;;2.50;;
12042;SDS011;6082;49.306;12.862;2023-04-24T08:09:16;2.63;;;2.40;;
12042;SDS011;6082;49.306;12.862;2023-04-24T08:11:42;3.63;;;2.63;;
12042;SDS011;6082;49.306;12.862;2023-04-24T08:14:09;3.30;;;2.23;;
12042;SDS011;6082;49.306;12.862;2023-04-24T08:16:37;2.73;;;2.30;;
12042;SDS011;6082;49.306;12.862;2023-04-24T08:19:03;2.97;;;2.67;;
12042;SDS011;6082;49.306;12.862;2023-04-24T08:21:29;4.93;;;3.07;;
12042;SDS011;6082;49.306;12.862;2023-04-24T08:23:55;4.40;;;2.67;;
12042;SDS011;6082;49.306;12.862;2023-04-24T08:26:21;3.63;;;2.50;;
12042;SDS011;6082;49.306;12.862;2023-04-24T08:28:47;3.37;;;2.50;;
12042;SDS011;6082;49.306;12.862;2023-04-24T08:31:13;3.07;;;2.77;;
12042;SDS011;6082;49.306;12.862;2023-04-24T08:33:39;2.87;;;2.40;;
12042;SDS011;6082;49.306;12.862;2023-04-24T08:36:06;3.70;;;2.63;;
12042;SDS011;6082;49.306;12.862;2023-04-24T08:38:33;2.73;;;2.13;;
12042;SDS011;6082;49.306;12.862;2023-04-24T08:40:59;2.77;;;2.50;;
12042;SDS011;6082;49.306;12.862;2023-04-24T08:43:26;2.60;;;2.40;;
12042;SDS011;6082;49.306;12.862;2023-04-24T08:45:52;3.50;;;2.50;;
12042;SDS011;6082;49.306;12.862;2023-04-24T08:48:18;2.50;;;2.03;;
12042;SDS011;6082;49.306;12.862;2023-04-24T08:50:46;4.10;;;2.53;;
12042;SDS011;6082;49.306;12.862;2023-04-24T08:53:13;2.67;;;1.90;;
12042;SDS011;6082;49.306;12.862;2023-04-24T08:55:40;2.63;;;2.03;;
12042;SDS011;6082;49.306;12.862;2023-04-24T08:58:06;5.70;;;2.70;;
12042;SDS011;6082;49.306;12.862;2023-04-24T09:00:33;2.67;;;2.23;;
12042;SDS011;6082;49.306;12.862;2023-04-24T09:03:00;2.37;;;2.10;;
12042;SDS011;6082;49.306;12.862;2023-04-24T09:05:26;2.40;;;2.10;;
12042;SDS011;6082;49.306;12.862;2023-04-24T09:07:53;2.60;;;1.97;;
12042;SDS011;6082;49.306;12.862;2023-04-24T09:10:20;5.93;;;2.10;;
12042;SDS011;6082;49.306;12.862;2023-04-24T09:12:47;3.30;;;2.27;;
12042;SDS011;6082;49.306;12.862;2023-04-24T09:15:13;3.97;;;2.47;;
12042;SDS011;6082;49.306;12.862;2023-04-24T09:17:40;2.00;;;1.73;;
12042;SDS011;6082;49.306;12.862;2023-04-24T09:20:06;2.40;;;1.73;;
12042;SDS011;6082;49.306;12.862;2023-04-24T09:22:33;2.80;;;2.23;;
12042;SDS011;6082;49.306;12.862;2023-04-24T09:25:01;2.30;;;1.90;;
12042;SDS011;6082;49.306;12.862;2023-04-24T09:27:28;5.30;;;2.00;;
12042;SDS011;6082;49.306;12.862;2023-04-24T09:29:55;2.00;;;1.80;;
12042;SDS011;6082;49.306;12.862;2023-04-24T09:32:22;1.30;;;1.00;;
12042;SDS011;6082;49.306;12.862;2023-04-24T09:35:04;0.87;;;0.80;;
12042;SDS011;6082;49.306;12.862;2023-04-24T09:37:34;1.17;;;0.90;;
12042;SDS011;6082;49.306;12.862;2023-04-24T09:42:37;0.90;;;0.80;;
12042;SDS011;6082;49.306;12.862;2023-04-24T09:45:04;0.80;;;0.70;;
12042;SDS011;6082;49.306;12.862;2023-04-24T09:47:39;1.10;;;0.97;;
12042;SDS011;6082;49.306;12.862;2023-04-24T09:50:12;1.43;;;1.20;;
12042;SDS011;6082;49.306;12.862;2023-04-24T09:52:42;1.10;;;1.00;;
12042;SDS011;6082;49.306;12.862;2023-04-24T09:55:16;1.10;;;0.70;;
12042;SDS011;6082;49.306;12.862;2023-04-24T09:57:54;1.37;;;0.90;;
12042;SDS011;6082;49.306;12.862;2023-04-24T10:02:50;0.80;;;0.80;;
12042;SDS011;6082;49.306;12.862;2023-04-24T10:05:17;1.23;;;0.90;;
12042;SDS011;6082;49.306;12.862;2023-04-24T10:07:43;1.47;;;0.83;;
12042;SDS011;6082;49.306;12.862;2023-04-24T10:10:24;1.17;;;1.00;;
12042;SDS011;6082;49.306;12.862;2023-04-24T10:12:50;1.97;;;1.03;;
12042;SDS011;6082;49.306;12.862;2023-04-24T10:15:17;1.10;;;1.00;;
12042;SDS011;6082;49.306;12.862;2023-04-24T10:17:47;2.10;;;1.10;;
12042;SDS011;6082;49.306;12.862;2023-04-24T10:20:17;1.50;;;1.10;;
12042;SDS011;6082;49.306;12.862;2023-04-24T10:22:44;0.97;;;0.90;;
12042;SDS011;6082;49.306;12.862;2023-04-24T10:25:13;1.97;;;1.30;;
12042;SDS011;6082;49.306;12.862;2023-04-24T10:27:39;1.93;;;1.10;;
12042;SDS011;6082;49.306;12.862;2023-04-24T10:32:35;1.50;;;1.27;;
12042;SDS011;6082;49.306;12.862;2023-04-24T10:35:01;1.40;;;1.20;;
12042;SDS011;6082;49.306;12.862;2023-04-24T10:37:27;2.83;;;1.60;;
12042;SDS011;6082;49.306;12.862;2023-04-24T10:39:54;2.63;;;1.30;;
12042;SDS011;6082;49.306;12.862;2023-04-24T10:42:21;1.80;;;1.30;;
12042;SDS011;6082;49.306;12.862;2023-04-24T10:44:48;1.33;;;1.23;;
12042;SDS011;6082;49.306;12.862;2023-04-24T10:47:14;1.90;;;1.60;;
12042;SDS011;6082;49.306;12.862;2023-04-24T10:49:40;3.00;;;1.60;;
12042;SDS011;6082;49.306;12.862;2023-04-24T10:52:08;2.00;;;1.40;;
12042;SDS011;6082;49.306;12.862;2023-04-24T10:59:45;2.40;;;1.70;;
12042;SDS011;6082;49.306;12.862;2023-04-24T11:02:13;2.60;;;1.67;;
12042;SDS011;6082;49.306;12.862;2023-04-24T11:04:40;1.90;;;1.60;;
12042;SDS011;6082;49.306;12.862;2023-04-24T11:07:08;2.23;;;1.53;;
12042;SDS011;6082;49.306;12.862;2023-04-24T11:09:34;1.73;;;1.40;;
12042;SDS011;6082;49.306;12.862;2023-04-24T11:12:11;2.40;;;1.20;;
12042;SDS011;6082;49.306;12.862;2023-04-24T11:20:06;1.40;;;1.23;;
12042;SDS011;6082;49.306;12.862;2023-04-24T11:22:34;1.87;;;1.40;;
12042;SDS011;6082;49.306;12.862;2023-04-24T11:25:02;1.20;;;1.03;;
12042;SDS011;6082;49.306;12.862;2023-04-24T11:27:32;1.23;;;1.13;;
12042;SDS011;6082;49.306;12.862;2023-04-24T11:30:02;1.30;;;1.20;;
12042;SDS011;6082;49.306;12.862;2023-04-24T11:37:34;4.23;;;2.23;;
12042;SDS011;6082;49.306;12.862;2023-04-24T11:40:01;3.70;;;2.23;;
12042;SDS011;6082;49.306;12.862;2023-04-24T11:42:28;2.50;;;1.80;;
12042;SDS011;6082;49.306;12.862;2023-04-24T11:44:59;2.07;;;1.33;;
12042;SDS011;6082;49.306;12.862;2023-04-24T11:47:32;3.10;;;1.20;;
12042;SDS011;6082;49.306;12.862;2023-04-24T11:49:59;1.70;;;1.30;;
12042;SDS011;6082;49.306;12.862;2023-04-24T11:52:28;1.60;;;1.30;;
12042;SDS011;6082;49.306;12.862;2023-04-24T11:54:55;2.33;;;1.33;;
12042;SDS011;6082;49.306;12.862;2023-04-24T11:57:24;2.50;;;1.83;;
12042;SDS011;6082;49.306;12.862;2023-04-24T11:59:54;1.73;;;1.33;;
12042;SDS011;6082;49.306;12.862;2023-04-24T12:02:21;1.53;;;1.43;;
12042;SDS011;6082;49.306;12.862;2023-04-24T12:04:47;4.00;;;1.30;;
12042;SDS011;6082;49.306;12.862;2023-04-24T12:07:13;1.40;;;1.17;;
12042;SDS011;6082;49.306;12.862;2023-04-24T12:09:47;1.63;;;1.17;;
12042;SDS011;6082;49.306;12.862;2023-04-24T12:12:13;1.30;;;1.20;;
12042;SDS011;6082;49.306;12.862;2023-04-24T12:14:50;1.97;;;1.10;;
12042;SDS011;6082;49.306;12.862;2023-04-24T12:17:23;1.30;;;1.17;;
12042;SDS011;6082;49.306;12.862;2023-04-24T12:19:49;1.57;;;1.40;;
12042;SDS011;6082;49.306;12.862;2023-04-24T12:22:15;2.10;;;1.10;;
12042;SDS011;6082;49.306;12.862;2023-04-24T12:27:23;1.43;;;1.00;;
12042;SDS011;6082;49.306;12.862;2023-04-24T12:29:56;2.57;;;1.43;;
12042;SDS011;6082;49.306;12.862;2023-04-24T12:32:22;2.13;;;1.50;;
12042;SDS011;6082;49.306;12.862;2023-04-24T12:34:50;2.87;;;1.20;;
12042;SDS011;6082;49.306;12.862;2023-04-24T12:37:16;1.87;;;1.30;;
12042;SDS011;6082;49.306;12.862;2023-04-24T12:40:02;2.03;;;1.50;;
12042;SDS011;6082;49.306;12.862;2023-04-24T12:42:29;1.97;;;1.20;;
12042;SDS011;6082;49.306;12.862;2023-04-24T12:44:56;1.90;;;1.40;;
12042;SDS011;6082;49.306;12.862;2023-04-24T12:47:23;2.73;;;1.43;;
12042;SDS011;6082;49.306;12.862;2023-04-24T12:49:50;1.80;;;1.17;;
12042;SDS011;6082;49.306;12.862;2023-04-24T12:52:17;1.53;;;1.33;;
12042;SDS011;6082;49.306;12.862;2023-04-24T12:54:45;1.20;;;1.10;;
12042;SDS011;6082;49.306;12.862;2023-04-24T12:57:11;1.20;;;1.10;;
12042;SDS011;6082;49.306;12.862;2023-04-24T12:59:37;2.00;;;1.50;;
12042;SDS011;6082;49.306;12.862;2023-04-24T13:02:04;1.83;;;1.63;;
12042;SDS011;6082;49.306;12.862;2023-04-24T13:04:30;2.70;;;1.50;;
12042;SDS011;6082;49.306;12.862;2023-04-24T13:07:00;2.27;;;1.57;;
12042;SDS011;6082;49.306;12.862;2023-04-24T13:09:26;2.80;;;1.80;;
12042;SDS011;6082;49.306;12.862;2023-04-24T13:11:52;1.87;;;1.77;;
12042;SDS011;6082;49.306;12.862;2023-04-24T13:14:18;1.47;;;1.37;;
12042;SDS011;6082;49.306;12.862;2023-04-24T13:16:47;4.13;;;2.77;;
12042;SDS011;6082;49.306;12.862;2023-04-24T13:19:14;3.43;;;2.03;;
12042;SDS011;6082;49.306;12.862;2023-04-24T13:21:40;2.80;;;2.00;;
12042;SDS011;6082;49.306;12.862;2023-04-24T13:24:06;2.43;;;1.70;;
12042;SDS011;6082;49.306;12.862;2023-04-24T13:26:33;1.73;;;1.30;;
12042;SDS011;6082;49.306;12.862;2023-04-24T13:28:59;3.00;;;2.40;;
12042;SDS011;6082;49.306;12.862;2023-04-24T13:31:25;2.40;;;1.93;;
12042;SDS011;6082;49.306;12.862;2023-04-24T13:33:51;2.37;;;1.60;;
12042;SDS011;6082;49.306;12.862;2023-04-24T13:36:17;3.10;;;2.27;;
12042;SDS011;6082;49.306;12.862;2023-04-24T13:38:43;1.67;;;1.40;;
12042;SDS011;6082;49.306;12.862;2023-04-24T13:41:10;4.40;;;2.93;;
12042;SDS011;6082;49.306;12.862;2023-04-24T13:43:36;4.57;;;2.60;;
12042;SDS011;6082;49.306;12.862;2023-04-24T13:46:02;2.10;;;1.80;;
12042;SDS011;6082;49.306;12.862;2023-04-24T13:48:28;2.97;;;1.80;;
12042;SDS011;6082;49.306;12.862;2023-04-24T13:50:55;2.17;;;1.70;;
12042;SDS011;6082;49.306;12.862;2023-04-24T13:53:21;4.50;;;3.17;;
12042;SDS011;6082;49.306;12.862;2023-04-24T13:55:47;2.47;;;1.50;;
12042;SDS011;6082;49.306;12.862;2023-04-24T13:58:13;3.00;;;2.03;;
12042;SDS011;6082;49.306;12.862;2023-04-24T14:00:43;3.70;;;2.37;;
12042;SDS011;6082;49.306;12.862;2023-04-24T14:03:09;6.70;;;4.27;;
12042;SDS011;6082;49.306;12.862;2023-04-24T14:05:35;3.63;;;2.03;;
12042;SDS011;6082;49.306;12.862;2023-04-24T14:08:02;7.27;;;4.40;;
12042;SDS011;6082;49.306;12.862;2023-04-24T14:10:28;3.23;;;2.30;;
12042;SDS011;6082;49.306;12.862;2023-04-24T14:12:54;5.50;;;2.97;;
12042;SDS011;6082;49.306;12.862;2023-04-24T14:15:20;2.87;;;2.10;;
12042;SDS011;6082;49.306;12.862;2023-04-24T14:17:47;3.10;;;2.33;;
12042;SDS011;6082;49.306;12.862;2023-04-24T14:20:14;5.70;;;3.30;;
12042;SDS011;6082;49.306;12.862;2023-04-24T14:22:40;2.60;;;2.10;;
12042;SDS011;6082;49.306;12.862;2023-04-24T14:25:07;2.20;;;1.47;;
12042;SDS011;6082;49.306;12.862;2023-04-24T14:27:33;1.63;;;1.40;;
12042;SDS011;6082;49.306;12.862;2023-04-24T14:29:59;2.60;;;1.60;;
12042;SDS011;6082;49.306;12.862;2023-04-24T14:32:25;2.40;;;1.67;;
12042;SDS011;6082;49.306;12.862;2023-04-24T14:34:52;2.10;;;1.30;;
12042;SDS011;6082;49.306;12.862;2023-04-24T14:37:18;1.10;;;1.00;;
12042;SDS011;6082;49.306;12.862;2023-04-24T14:39:44;1.80;;;1.40;;
12042;SDS011;6082;49.306;12.862;2023-04-24T14:42:11;1.60;;;1.27;;
12042;SDS011;6082;49.306;12.862;2023-04-24T14:44:37;1.70;;;1.40;;
12042;SDS011;6082;49.306;12.862;2023-04-24T14:47:03;5.17;;;2.23;;
12042;SDS011;6082;49.306;12.862;2023-04-24T14:49:29;2.07;;;1.87;;
12042;SDS011;6082;49.306;12.862;2023-04-24T14:51:55;1.43;;;1.13;;
12042;SDS011;6082;49.306;12.862;2023-04-24T14:54:21;2.67;;;2.17;;
12042;SDS011;6082;49.306;12.862;2023-04-24T14:56:48;2.33;;;1.70;;
12042;SDS011;6082;49.306;12.862;2023-04-24T14:59:14;2.73;;;1.70;;
12042;SDS011;6082;49.306;12.862;2023-04-24T15:01:40;3.10;;;1.90;;
12042;SDS011;6082;49.306;12.862;2023-04-24T15:04:08;1.70;;;1.50;;
12042;SDS011;6082;49.306;12.862;2023-04-24T15:06:34;1.97;;;1.73;;
12042;SDS011;6082;49.306;12.862;2023-04-24T15:09:00;1.93;;;1.50;;
12042;SDS011;6082;49.306;12.862;2023-04-24T15:11:26;2.73;;;1.40;;
12042;SDS011;6082;49.306;12.862;2023-04-24T15:13:52;1.77;;;1.27;;